Time;durP1;ratioP1;P1;durP2;ratioP2;P2;SDS_P1;SDS_P2;PMS_P1;PMS_P2;Temp;Humidity;BMP_temperature;BMP_pressure;BME280_temperature;BME280_humidity;BME280_pressure;Samples;Min_cycle;Max_cycle;Signal;HPM_P1;HPM_P2
2022/08/25 00:01:34;;;;;;;3.47;3.03;;;;;;;23.59;88.30;99331.69;5079538;28;20036;-90
2022/08/25 00:04:01;;;;;;;2.92;1.70;;;;;;;23.62;89.17;99357.53;5083717;28;20044;-89
2022/08/25 00:06:26;;;;;;;1.60;1.50;;;;;;;23.31;89.47;99326.63;5083051;28;20036;-90
2022/08/25 00:08:52;;;;;;;1.33;1.23;;;;;;;23.35;88.41;99326.28;5089752;28;20035;-90
2022/08/25 00:11:23;;;;;;;2.85;1.63;;;;;;;22.98;90.65;99326.25;5090306;28;20032;-90
2022/08/25 00:13:52;;;;;;;0.68;0.68;;;;;;;22.98;91.96;99315.50;5072067;28;20028;-92
2022/08/25 00:16:20;;;;;;;1.45;1.35;;;;;;;23.17;91.48;99324.94;5071729;28;20110;-92
2022/08/25 00:18:48;;;;;;;1.73;1.60;;;;;;;22.90;92.57;99307.16;5068374;28;20165;-92
2022/08/25 00:21:15;;;;;;;5.57;1.83;;;;;;;23.20;89.81;99287.94;5069615;28;20556;-92
2022/08/25 00:23:42;;;;;;;3.50;1.58;;;;;;;23.33;90.14;99319.31;5051551;28;20178;-93
2022/08/25 00:26:09;;;;;;;4.75;2.15;;;;;;;23.19;89.00;99296.13;5068936;28;20048;-92
2022/08/25 00:28:35;;;;;;;4.95;2.45;;;;;;;22.91;89.68;99255.09;5071288;28;20498;-91
2022/08/25 00:31:02;;;;;;;5.60;2.75;;;;;;;23.06;89.99;99320.31;5071492;28;20688;-91
2022/08/25 00:33:30;;;;;;;14.32;1.33;;;;;;;22.57;91.47;99253.97;5090286;28;20085;-90
2022/08/25 00:35:56;;;;;;;1.35;1.25;;;;;;;22.70;91.25;99271.78;5066556;28;20036;-91
2022/08/25 00:38:22;;;;;;;3.50;3.20;;;;;;;23.05;90.40;99307.88;5086000;28;20165;-92
2022/08/25 00:41:04;;;;;;;1.85;1.48;;;;;;;22.83;89.33;99284.34;5071060;28;20036;-91
2022/08/25 00:43:52;;;;;;;2.03;1.85;;;;;;;22.92;90.46;99298.97;5071458;28;20032;-91
2022/08/25 00:46:21;;;;;;;1.92;1.73;;;;;;;22.58;91.21;99280.72;5089497;28;20039;-90
2022/08/25 00:48:50;;;;;;;0.85;0.73;;;;;;;22.81;91.01;99291.69;5087446;28;20834;-91
2022/08/25 00:51:23;;;;;;;2.28;1.88;;;;;;;22.58;90.33;99251.16;5070746;28;20032;-89
2022/08/25 00:53:50;;;;;;;0.73;0.73;;;;;;;22.58;90.46;99253.00;5089655;28;20517;-89
2022/08/25 00:56:16;;;;;;;2.05;1.40;;;;;;;22.72;90.35;99271.69;5088142;28;20032;-89
2022/08/25 00:58:42;;;;;;;2.28;1.77;;;;;;;22.78;90.29;99283.84;5089053;28;20031;-88
2022/08/25 01:01:08;;;;;;;2.38;1.83;;;;;;;22.47;90.91;99264.53;5071038;28;20517;-89
2022/08/25 01:03:34;;;;;;;3.55;1.23;;;;;;;22.52;92.43;99290.13;5088791;28;20035;-88
2022/08/25 01:06:02;;;;;;;3.53;2.90;;;;;;;22.00;94.07;99242.72;5089536;28;20048;-88
2022/08/25 01:08:31;;;;;;;1.48;1.38;;;;;;;21.99;93.42;99231.09;5089230;28;20039;-89
2022/08/25 01:11:00;;;;;;;2.08;1.38;;;;;;;22.30;93.19;99276.44;5070422;28;20040;-88
2022/08/25 01:13:33;;;;;;;3.40;2.38;;;;;;;22.27;92.98;99255.16;5089003;28;20047;-88
2022/08/25 01:15:59;;;;;;;3.20;2.35;;;;;;;22.33;91.99;99263.66;5070184;28;20028;-90
2022/08/25 01:18:26;;;;;;;1.90;1.55;;;;;;;22.30;92.96;99269.25;5066007;28;20102;-89
2022/08/25 01:20:57;;;;;;;3.75;1.90;;;;;;;22.16;92.02;99229.06;5068590;28;20032;-89
2022/08/25 01:23:24;;;;;;;5.15;3.63;;;;;;;22.56;91.47;99258.50;5068195;28;20028;-89
2022/08/25 01:26:00;;;;;;;3.65;1.85;;;;;;;22.94;88.85;99297.00;5063068;28;20032;-89
2022/08/25 01:28:26;;;;;;;3.40;1.73;;;;;;;22.64;88.75;99253.41;5088533;28;20059;-88
2022/08/25 01:30:52;;;;;;;4.03;2.40;;;;;;;22.73;87.27;99235.78;5088257;28;20047;-88
2022/08/25 01:33:18;;;;;;;1.75;1.65;;;;;;;22.85;86.08;99263.59;5087158;28;20089;-88
2022/08/25 01:35:44;;;;;;;4.65;2.67;;;;;;;22.92;87.00;99266.69;5088045;28;20035;-89
2022/08/25 01:38:12;;;;;;;1.73;1.63;;;;;;;22.96;85.48;99258.28;5070072;28;20058;-88
2022/08/25 01:40:39;;;;;;;1.75;1.33;;;;;;;23.09;85.88;99270.88;5088089;28;20422;-89
2022/08/25 01:43:14;;;;;;;2.10;1.33;;;;;;;23.28;85.17;99289.19;5072879;28;20033;-89
2022/08/25 01:45:44;;;;;;;2.65;1.52;;;;;;;23.14;84.99;99272.25;5050030;28;20585;-89
2022/08/25 01:48:11;;;;;;;1.92;1.58;;;;;;;23.41;84.26;99295.38;5080849;28;20134;-88
2022/08/25 01:50:37;;;;;;;3.55;3.22;;;;;;;23.35;84.00;99264.41;5087431;28;20455;-88
2022/08/25 01:53:07;;;;;;;0.75;0.75;;;;;;;23.38;84.49;99272.25;5088739;28;20092;-89
2022/08/25 01:55:50;;;;;;;3.35;1.83;;;;;;;22.69;86.98;99232.47;5068839;28;20484;-88
2022/08/25 01:58:33;;;;;;;5.45;2.78;;;;;;;22.69;88.09;99285.34;5087873;28;20040;-87
2022/08/25 02:01:02;;;;;;;1.40;1.08;;;;;;;22.50;88.58;99262.47;5088172;28;20036;-88
2022/08/25 02:03:28;;;;;;;2.42;1.63;;;;;;;22.42;88.54;99264.84;5085916;28;20051;-88
2022/08/25 02:05:55;;;;;;;3.78;1.55;;;;;;;22.31;88.38;99246.81;5086941;28;20086;-88
2022/08/25 02:08:22;;;;;;;2.00;1.00;;;;;;;22.35;88.18;99231.31;5088045;28;20486;-89
2022/08/25 02:10:48;;;;;;;11.15;2.15;;;;;;;22.18;86.76;99189.50;5068185;28;20403;-88
2022/08/25 02:13:14;;;;;;;0.95;0.75;;;;;;;22.18;88.24;99211.00;5087699;28;20533;-88
2022/08/25 02:15:55;;;;;;;1.30;1.23;;;;;;;22.34;87.94;99225.09;5068703;28;20052;-87
2022/08/25 02:18:21;;;;;;;1.55;1.45;;;;;;;22.30;87.21;99209.28;5065469;28;20426;-88
2022/08/25 02:20:46;;;;;;;1.48;1.38;;;;;;;22.62;86.33;99231.19;5076328;28;20013;-87
2022/08/25 02:23:12;;;;;;;2.80;1.90;;;;;;;22.48;87.23;99226.78;5087911;28;20024;-88
2022/08/25 02:25:39;;;;;;;1.17;1.02;;;;;;;22.42;87.28;99223.69;5087413;28;20028;-87
2022/08/25 02:28:07;;;;;;;2.00;1.52;;;;;;;22.50;88.67;99250.88;5087648;28;20119;-87
2022/08/25 02:30:33;;;;;;;0.90;0.90;;;;;;;22.46;87.84;99230.56;5087349;28;20032;-87
2022/08/25 02:32:58;;;;;;;2.17;1.65;;;;;;;22.44;86.91;99213.69;5068769;28;20032;-87
2022/08/25 02:35:24;;;;;;;1.42;1.30;;;;;;;22.57;87.52;99241.41;5086987;28;20035;-87
2022/08/25 02:37:50;;;;;;;1.27;0.88;;;;;;;22.38;87.55;99214.13;5087002;28;20429;-88
2022/08/25 02:40:16;;;;;;;1.13;1.02;;;;;;;22.38;88.86;99233.78;5086835;28;20028;-88
2022/08/25 02:42:43;;;;;;;2.30;2.10;;;;;;;22.14;88.86;99194.25;5087482;28;20038;-88
2022/08/25 02:45:09;;;;;;;1.27;1.17;;;;;;;22.38;89.13;99219.50;5086737;28;20784;-88
2022/08/25 02:47:36;;;;;;;0.80;0.70;;;;;;;22.19;89.45;99196.59;5087195;28;20031;-88
2022/08/25 02:50:06;;;;;;;3.90;3.10;;;;;;;22.13;90.42;99216.69;5068194;28;20039;-88
2022/08/25 02:52:31;;;;;;;5.82;1.38;;;;;;;22.04;89.89;99208.44;5069073;28;20054;-88
2022/08/25 02:54:57;;;;;;;0.20;0.20;;;;;;;22.04;89.69;99213.81;5086582;28;20489;-88
2022/08/25 02:57:23;;;;;;;0.95;0.93;;;;;;;21.84;89.91;99197.25;5068369;28;20055;-87
2022/08/25 02:59:48;;;;;;;1.52;1.42;;;;;;;21.96;89.92;99187.50;5086746;28;20066;-89
2022/08/25 03:02:15;;;;;;;0.52;0.52;;;;;;;22.00;89.39;99180.94;5086019;28;20064;-88
2022/08/25 03:04:41;;;;;;;3.50;0.57;;;;;;;22.04;89.73;99198.53;5064772;28;20514;-88
2022/08/25 03:07:07;;;;;;;0.45;0.45;;;;;;;21.88;89.30;99173.75;5059281;28;20059;-88
2022/08/25 03:09:32;;;;;;;0.55;0.55;;;;;;;22.09;90.84;99203.59;5086710;28;20028;-88
2022/08/25 03:11:57;;;;;;;0.60;0.60;;;;;;;21.93;90.82;99176.97;5085802;28;20039;-87
2022/08/25 03:14:23;;;;;;;2.65;1.55;;;;;;;22.08;89.50;99175.03;5086802;28;20433;-88
2022/08/25 03:16:49;;;;;;;1.60;1.50;;;;;;;22.15;89.44;99193.28;5086497;28;20122;-88
2022/08/25 03:19:15;;;;;;;2.25;1.77;;;;;;;22.31;88.22;99222.63;5086440;28;20124;-89
2022/08/25 03:21:41;;;;;;;0.35;0.35;;;;;;;22.16;87.27;99183.41;5086530;28;20036;-88
2022/08/25 03:24:07;;;;;;;1.90;0.60;;;;;;;22.26;86.38;99178.22;5086601;28;20039;-87
2022/08/25 03:29:17;;;;;;;3.10;2.88;;;;;;;22.24;85.82;99183.69;5073898;28;20422;-88
2022/08/25 03:31:43;;;;;;;6.85;1.98;;;;;;;22.43;84.56;99180.59;5085373;28;20028;-91
2022/08/25 03:34:45;;;;;;;0.40;0.40;;;;;;;22.91;83.90;99224.63;5081163;28;20028;-92
2022/08/25 03:37:10;;;;;;;0.60;0.60;;;;;;;22.55;83.62;99169.91;5075592;28;20036;-91
2022/08/25 03:39:36;;;;;;;0.45;0.45;;;;;;;22.96;83.25;99219.78;5082311;28;20040;-89
2022/08/25 03:42:03;;;;;;;1.50;0.82;;;;;;;22.59;83.06;99168.72;5069543;28;20032;-93
2022/08/25 03:44:28;;;;;;;1.05;0.70;;;;;;;22.84;81.98;99190.13;5055258;28;20506;-94
2022/08/25 03:46:54;;;;;;;0.47;0.30;;;;;;;22.86;82.62;99214.22;5076685;28;20067;-87
2022/08/25 03:49:22;;;;;;;6.63;2.33;;;;;;;22.87;83.46;99232.94;5076674;28;20463;-94
2022/08/25 03:51:52;;;;;;;4.38;1.85;;;;;;;22.85;83.93;99210.69;5090261;28;20039;-95
2022/08/25 03:54:21;;;;;;;2.55;1.70;;;;;;;22.74;83.97;99201.66;5071683;28;20051;-93
2022/08/25 03:56:47;;;;;;;0.77;0.65;;;;;;;22.65;83.67;99196.00;5070725;28;20474;-96
2022/08/25 03:59:13;;;;;;;2.35;1.17;;;;;;;22.91;83.13;99238.97;5066862;28;20037;-95
2022/08/25 04:01:41;;;;;;;6.15;1.92;;;;;;;22.81;82.70;99229.84;5079819;28;20490;-94
2022/08/25 04:04:08;;;;;;;1.45;1.35;;;;;;;22.71;82.53;99211.69;5089690;28;20089;-93
2022/08/25 04:06:33;;;;;;;1.27;1.17;;;;;;;22.79;82.65;99215.66;5071510;28;20488;-91
2022/08/25 04:08:59;;;;;;;1.80;0.93;;;;;;;22.56;82.67;99201.22;5070501;28;20123;-94
2022/08/25 04:11:26;;;;;;;0.63;0.63;;;;;;;22.67;83.15;99226.31;5095574;28;20039;-93
2022/08/25 04:13:55;;;;;;;1.52;1.42;;;;;;;22.80;83.04;99241.56;5092039;28;20076;-90
2022/08/25 04:16:23;;;;;;;1.83;1.70;;;;;;;22.56;83.29;99195.84;5065257;28;20498;-89
2022/08/25 04:18:51;;;;;;;0.80;0.80;;;;;;;22.79;83.01;99238.00;5090840;28;20521;-90
2022/08/25 04:21:18;;;;;;;2.38;1.70;;;;;;;22.76;82.57;99243.63;5091494;28;20513;-88
2022/08/25 04:23:45;;;;;;;5.07;1.30;;;;;;;23.00;82.56;99248.16;5089844;28;20024;-90
2022/08/25 04:26:13;;;;;;;4.47;1.38;;;;;;;22.95;81.46;99223.44;5089837;28;20043;-89
2022/08/25 04:28:38;;;;;;;2.03;1.75;;;;;;;23.00;80.92;99211.38;5089898;28;20038;-93
2022/08/25 04:31:09;;;;;;;2.55;1.05;;;;;;;22.90;80.86;99186.13;5071062;28;20032;-94
2022/08/25 04:33:38;;;;;;;0.68;0.68;;;;;;;23.09;81.79;99227.84;5090828;28;20058;-92
2022/08/25 04:36:05;;;;;;;0.65;0.65;;;;;;;22.97;82.06;99208.03;5092281;28;20028;-93
2022/08/25 04:38:32;;;;;;;1.45;1.35;;;;;;;22.94;82.16;99187.63;5073512;28;20038;-95
2022/08/25 04:41:01;;;;;;;2.40;1.83;;;;;;;22.96;82.25;99187.53;5073301;28;20024;-95
2022/08/25 04:43:27;;;;;;;5.00;1.63;;;;;;;23.00;82.04;99189.88;5070230;28;20040;-93
2022/08/25 04:45:54;;;;;;;1.00;0.88;;;;;;;23.02;81.88;99176.31;5053732;28;20048;-93
2022/08/25 04:48:21;;;;;;;4.60;2.28;;;;;;;22.98;82.01;99186.41;5070937;28;20451;-94
2022/08/25 04:50:55;;;;;;;0.80;0.73;;;;;;;22.79;82.74;99172.63;5091745;28;20486;-96
2022/08/25 04:53:20;;;;;;;1.02;0.93;;;;;;;22.78;82.23;99166.38;5073683;28;20020;-93
2022/08/25 04:55:47;;;;;;;2.38;2.05;;;;;;;23.05;83.22;99193.06;5092178;28;20154;-94
2022/08/25 04:58:14;;;;;;;11.10;1.30;;;;;;;23.04;83.42;99164.44;5074300;28;20028;-94
2022/08/25 05:00:40;;;;;;;6.32;1.42;;;;;;;23.10;83.57;99186.53;5072257;28;20028;-91
2022/08/25 05:03:07;;;;;;;5.57;3.25;;;;;;;23.36;81.34;99174.63;5089251;28;20039;-90
2022/08/25 05:05:36;;;;;;;0.30;0.30;;;;;;;23.43;81.88;99204.63;5070547;28;20147;-91
2022/08/25 05:08:02;;;;;;;1.77;1.25;;;;;;;23.40;81.94;99181.50;5086829;28;20099;-90
2022/08/25 05:10:28;;;;;;;0.52;0.52;;;;;;;23.60;82.50;99214.97;5069447;28;20489;-93
2022/08/25 05:12:53;;;;;;;7.00;1.00;;;;;;;23.57;81.68;99184.72;5052649;28;20034;-92
2022/08/25 05:18:03;;;;;;;1.47;1.00;;;;;;;23.77;80.85;99215.47;5090936;28;20118;-92
2022/08/25 05:20:29;;;;;;;1.27;1.17;;;;;;;23.57;81.08;99219.72;5088650;28;20078;-91
2022/08/25 05:22:56;;;;;;;1.40;1.02;;;;;;;23.62;81.07;99209.47;5088673;28;20024;-90
2022/08/25 05:25:21;;;;;;;5.10;1.80;;;;;;;23.88;79.91;99210.19;5088686;28;20024;-90
2022/08/25 05:27:47;;;;;;;2.45;1.25;;;;;;;23.74;79.53;99191.50;5088752;28;20036;-91
2022/08/25 05:30:13;;;;;;;9.05;1.77;;;;;;;23.71;80.83;99191.72;5089329;28;20089;-90
2022/08/25 05:32:38;;;;;;;1.38;1.17;;;;;;;23.97;80.42;99211.28;5088432;28;20032;-92
2022/08/25 05:35:05;;;;;;;0.75;0.63;;;;;;;24.44;78.75;99206.66;5070436;28;20644;-90
2022/08/25 05:37:31;;;;;;;1.58;1.48;;;;;;;24.58;76.31;99184.00;5088660;28;20054;-94
2022/08/25 05:39:57;;;;;;;1.10;1.00;;;;;;;24.77;75.67;99210.31;5069824;28;20490;-92
2022/08/25 05:42:22;;;;;;;2.08;1.40;;;;;;;24.66;75.34;99186.91;5087875;28;20028;-91
2022/08/25 05:44:48;;;;;;;1.35;1.02;;;;;;;24.77;75.06;99194.13;5087558;28;20028;-90
2022/08/25 05:47:14;;;;;;;2.20;1.58;;;;;;;24.77;74.88;99155.53;5069545;28;20028;-89
2022/08/25 05:49:39;;;;;;;5.93;4.53;;;;;;;25.25;73.95;99208.22;5070594;28;20020;-92
2022/08/25 05:52:05;;;;;;;4.43;1.83;;;;;;;25.20;73.29;99187.88;5070934;28;20069;-93
2022/08/25 05:54:30;;;;;;;5.57;2.67;;;;;;;25.33;73.43;99192.25;5069610;28;20433;-94
2022/08/25 05:56:57;;;;;;;1.58;1.17;;;;;;;25.28;72.47;99144.03;5069889;28;20032;-90
2022/08/25 05:59:23;;;;;;;1.27;1.05;;;;;;;25.45;70.58;99161.53;5070404;28;20036;-91
2022/08/25 06:04:32;;;;;;;2.22;2.03;;;;;;;25.51;70.04;99176.34;5087817;28;20862;-90
2022/08/25 06:06:59;;;;;;;1.75;1.45;;;;;;;25.61;71.52;99185.38;5088267;28;20032;-93
2022/08/25 06:09:25;;;;;;;3.50;3.13;;;;;;;25.51;70.08;99184.44;5090514;28;20046;-93
2022/08/25 06:11:53;;;;;;;3.78;3.22;;;;;;;25.27;70.43;99158.53;5072951;28;20449;-93
2022/08/25 06:14:19;;;;;;;2.17;1.98;;;;;;;25.32;70.05;99126.63;5055351;28;20068;-96
2022/08/25 06:16:48;;;;;;;2.70;2.30;;;;;;;25.41;68.81;99143.03;5057421;28;20071;-96
2022/08/25 06:19:41;;;;;;;1.58;1.25;;;;;;;25.55;68.16;99167.84;5045046;28;20067;-96
2022/08/25 06:22:07;;;;;;;2.97;2.20;;;;;;;25.59;68.16;99157.63;5051940;28;20087;-91
2022/08/25 06:24:33;;;;;;;9.48;3.78;;;;;;;25.35;68.66;99125.53;5055614;28;20032;-95
2022/08/25 06:26:59;;;;;;;6.78;3.58;;;;;;;25.26;68.31;99112.78;5055862;28;20067;-96
2022/08/25 06:29:25;;;;;;;3.10;1.92;;;;;;;26.08;67.03;99180.41;5048122;23;20069;-95
2022/08/25 06:31:52;;;;;;;1.58;1.40;;;;;;;25.96;64.95;99138.22;5033601;28;20041;-94
2022/08/25 06:34:18;;;;;;;5.47;3.58;;;;;;;26.48;65.88;99173.34;5025896;28;20099;-91
2022/08/25 06:36:47;;;;;;;10.55;4.50;;;;;;;26.63;64.05;99182.78;5014064;28;20043;-95
2022/08/25 06:39:12;;;;;;;7.22;3.25;;;;;;;26.75;63.92;99177.25;5013202;28;20064;-94
2022/08/25 06:41:38;;;;;;;4.53;2.85;;;;;;;26.89;63.48;99182.25;5010293;28;20029;-92
2022/08/25 06:44:04;;;;;;;3.78;2.78;;;;;;;26.98;62.32;99180.56;5010070;28;20030;-92
2022/08/25 06:46:30;;;;;;;3.08;2.60;;;;;;;27.07;63.87;99176.19;5010415;28;20474;-94
2022/08/25 06:48:56;;;;;;;3.83;2.85;;;;;;;27.37;62.69;99167.06;5010402;28;20037;-93
2022/08/25 06:51:25;;;;;;;18.92;4.75;;;;;;;27.25;61.36;99136.56;5010623;28;20044;-91
2022/08/25 06:53:51;;;;;;;1.33;1.23;;;;;;;27.28;60.90;99152.53;5010204;28;20418;-93
2022/08/25 06:56:19;;;;;;;2.67;2.47;;;;;;;27.45;61.09;99167.22;5009917;28;20021;-95
2022/08/25 06:58:48;;;;;;;9.93;2.50;;;;;;;27.31;61.85;99176.66;5010477;28;20025;-92
2022/08/25 07:01:20;;;;;;;2.83;2.45;;;;;;;27.84;61.88;99178.00;5027866;28;20499;-91
2022/08/25 07:03:48;;;;;;;6.18;3.45;;;;;;;27.81;60.21;99153.91;5027633;28;20092;-90
2022/08/25 07:06:17;;;;;;;3.60;2.42;;;;;;;28.10;58.81;99161.13;5028619;28;20101;-91
2022/08/25 07:08:42;;;;;;;9.43;2.55;;;;;;;28.12;56.94;99140.13;5011541;28;20029;-93
2022/08/25 07:11:10;;;;;;;3.65;3.33;;;;;;;28.02;57.31;99134.75;5009754;28;20036;-95
2022/08/25 07:13:37;;;;;;;1.92;1.73;;;;;;;28.09;57.88;99117.91;5010441;28;20053;-94
2022/08/25 07:16:04;;;;;;;2.25;1.88;;;;;;;27.75;58.96;99149.06;5009808;28;20037;-93
2022/08/25 07:18:31;;;;;;;3.63;2.50;;;;;;;27.55;59.04;99169.91;5027832;28;20100;-91
2022/08/25 07:20:57;;;;;;;5.50;3.22;;;;;;;27.56;59.26;99162.63;5027267;28;20459;-90
2022/08/25 07:23:24;;;;;;;3.65;2.92;;;;;;;27.78;59.22;99150.63;5027180;28;20048;-92
2022/08/25 07:25:51;;;;;;;3.88;2.25;;;;;;;27.81;59.00;99172.88;5008930;28;20041;-91
2022/08/25 07:28:17;;;;;;;20.70;2.85;;;;;;;27.97;58.73;99133.50;5009260;28;20120;-91
2022/08/25 07:30:43;;;;;;;3.00;2.33;;;;;;;28.17;58.45;99139.69;5026912;28;20105;-91
2022/08/25 07:33:08;;;;;;;4.88;3.13;;;;;;;27.61;59.03;99104.34;5026968;28;20088;-91
2022/08/25 07:35:35;;;;;;;7.47;3.55;;;;;;;27.78;57.97;99126.25;5026699;28;20033;-90
2022/08/25 07:38:01;;;;;;;10.70;3.05;;;;;;;27.65;56.88;99122.00;5009298;28;20416;-91
2022/08/25 07:40:30;;;;;;;4.43;3.33;;;;;;;28.07;58.14;99128.91;5008822;28;20112;-90
2022/08/25 07:43:00;;;;;;;3.95;2.63;;;;;;;28.13;56.80;99160.81;5026665;28;20157;-91
2022/08/25 07:45:30;;;;;;;3.35;2.75;;;;;;;28.12;57.44;99161.81;5029343;28;20037;-90
2022/08/25 07:48:02;;;;;;;7.95;2.70;;;;;;;28.20;57.09;99147.53;5012829;28;20064;-95
2022/08/25 07:50:30;;;;;;;6.63;4.03;;;;;;;28.50;56.44;99159.94;5012650;28;20033;-91
2022/08/25 07:52:56;;;;;;;6.05;3.60;;;;;;;28.39;55.78;99136.59;5012951;28;20029;-90
2022/08/25 07:55:24;;;;;;;4.13;2.72;;;;;;;28.75;55.39;99155.66;5030491;28;20061;-93
2022/08/25 07:57:51;;;;;;;6.07;3.20;;;;;;;28.97;54.62;99153.53;5029132;28;20038;-90
2022/08/25 08:00:17;;;;;;;9.48;4.28;;;;;;;28.75;53.58;99117.69;5012264;28;20438;-89
2022/08/25 08:02:43;;;;;;;10.07;2.35;;;;;;;28.96;55.16;99159.94;5012747;28;20029;-91
2022/08/25 08:05:11;;;;;;;1.92;1.38;;;;;;;29.41;53.42;99147.31;5030065;28;20033;-90
2022/08/25 08:07:37;;;;;;;5.07;2.60;;;;;;;29.23;54.66;99142.75;5012550;28;20030;-88
2022/08/25 08:10:05;;;;;;;3.00;2.03;;;;;;;29.10;53.19;99129.56;5030318;28;20036;-92
2022/08/25 08:12:30;;;;;;;4.72;3.60;;;;;;;29.13;53.39;99120.22;5029960;28;20121;-90
2022/08/25 08:14:57;;;;;;;3.85;3.05;;;;;;;29.42;54.26;99125.44;5012822;28;20531;-89
2022/08/25 08:17:23;;;;;;;4.45;4.03;;;;;;;29.66;52.99;99132.06;5029940;28;20103;-88
2022/08/25 08:19:49;;;;;;;3.03;2.72;;;;;;;29.91;52.49;99160.28;5012089;28;20076;-90
2022/08/25 08:22:14;;;;;;;7.45;3.85;;;;;;;30.00;52.99;99121.25;5030096;28;20040;-90
2022/08/25 08:24:43;;;;;;;3.63;3.00;;;;;;;30.17;52.20;99148.53;5029760;28;20026;-89
2022/08/25 08:27:12;;;;;;;4.15;2.10;;;;;;;30.22;48.95;99156.22;5012745;28;20112;-91
2022/08/25 08:29:39;;;;;;;4.15;3.35;;;;;;;30.24;47.85;99173.22;5011646;28;20208;-89
2022/08/25 08:32:07;;;;;;;9.38;2.42;;;;;;;29.96;49.23;99130.75;5029142;28;20072;-88
2022/08/25 08:34:33;;;;;;;3.55;2.63;;;;;;;30.28;49.11;99148.25;5030305;28;20037;-92
2022/08/25 08:36:59;;;;;;;6.18;3.70;;;;;;;30.59;50.69;99147.72;5012069;28;20048;-94
2022/08/25 08:39:26;;;;;;;7.57;3.38;;;;;;;30.98;48.56;99143.56;5030459;28;20535;-91
2022/08/25 08:42:20;;;;;;;5.63;3.33;;;;;;;31.12;49.79;99164.69;5011629;28;20041;-92
2022/08/25 08:44:52;;;;;;;2.78;1.80;;;;;;;31.10;48.79;99172.19;5011888;28;20091;-91
2022/08/25 08:47:26;;;;;;;2.28;2.05;;;;;;;30.69;47.58;99169.34;5029858;28;20029;-92
2022/08/25 08:50:19;;;;;;;8.70;3.42;;;;;;;30.69;48.60;99123.06;5011742;28;20029;-92
2022/08/25 08:53:07;;;;;;;6.05;3.75;;;;;;;30.96;48.33;99137.44;5011683;28;20041;-92
2022/08/25 08:55:41;;;;;;;9.65;2.78;;;;;;;31.29;47.60;99178.34;5010415;28;20087;-92
2022/08/25 08:58:18;;;;;;;5.22;3.20;;;;;;;30.64;46.21;99120.00;5011590;28;20514;-91
2022/08/25 09:00:51;;;;;;;5.47;3.85;;;;;;;31.38;47.65;99137.28;5029289;28;20033;-91
2022/08/25 09:03:35;;;;;;;6.93;3.20;;;;;;;31.46;46.10;99171.88;5012257;28;20033;-91
2022/08/25 09:06:06;;;;;;;3.67;1.95;;;;;;;30.92;47.21;99109.66;5011274;28;20041;-91
2022/08/25 09:08:32;;;;;;;5.63;2.67;;;;;;;31.24;46.54;99143.44;5011894;28;20072;-93
2022/08/25 09:11:21;;;;;;;10.93;4.22;;;;;;;31.80;45.94;99176.28;5033732;28;20030;-91
2022/08/25 09:14:06;;;;;;;7.22;2.58;;;;;;;31.52;47.54;99130.31;5013276;28;20432;-90
2022/08/25 09:17:00;;;;;;;5.55;2.60;;;;;;;31.67;43.97;99165.06;5014721;28;20041;-87
2022/08/25 09:20:16;;;;;;;4.80;3.10;;;;;;;31.69;44.92;99149.41;5012385;28;20092;-88
2022/08/25 09:23:07;;;;;;;5.57;1.92;;;;;;;31.80;43.00;99151.75;5003514;28;20038;-89
2022/08/25 09:25:47;;;;;;;2.97;2.50;;;;;;;31.71;40.31;99155.53;5000885;28;20082;-92
2022/08/25 09:28:54;;;;;;;6.35;3.17;;;;;;;32.21;40.18;99148.97;5006864;28;20185;-91
2022/08/25 09:31:26;;;;;;;6.65;3.55;;;;;;;31.95;41.91;99136.38;4917505;29;20155;-89
2022/08/25 09:33:55;;;;;;;4.28;1.98;;;;;;;32.01;41.67;99136.69;4917507;29;20095;-89
2022/08/25 09:36:22;;;;;;;3.90;2.25;;;;;;;31.90;40.95;99119.72;4972768;28;20073;-90
2022/08/25 09:38:47;;;;;;;5.78;2.58;;;;;;;31.85;43.22;99097.56;4999772;28;20034;-88
2022/08/25 09:41:16;;;;;;;5.65;1.63;;;;;;;32.18;40.74;99110.25;4989782;28;20130;-89
2022/08/25 09:43:52;;;;;;;1.10;1.00;;;;;;;32.03;42.86;99089.16;4987212;28;20034;-89
2022/08/25 09:46:26;;;;;;;5.38;4.20;;;;;;;31.85;39.41;99113.06;4987908;28;20093;-88
2022/08/25 09:49:12;;;;;;;3.60;2.20;;;;;;;31.65;42.07;99093.53;4971956;28;20034;-88
2022/08/25 09:51:39;;;;;;;4.38;2.42;;;;;;;31.31;42.40;99091.84;4970778;28;20050;-89
2022/08/25 09:54:16;;;;;;;3.45;2.53;;;;;;;31.26;42.08;99127.75;4988647;28;20042;-93
2022/08/25 09:56:53;;;;;;;4.75;3.25;;;;;;;31.58;47.38;99112.44;4969918;28;20045;-91
2022/08/25 09:59:24;;;;;;;4.28;2.20;;;;;;;31.72;47.98;99100.84;4988403;28;20030;-91
2022/08/25 10:01:55;;;;;;;7.15;3.50;;;;;;;31.83;41.85;99096.03;4988602;28;20034;-91
2022/08/25 10:04:32;;;;;;;4.90;2.55;;;;;;;31.58;44.44;99074.31;4989570;28;20061;-93
2022/08/25 10:07:19;;;;;;;3.42;2.08;;;;;;;32.20;43.06;99073.59;4989327;28;20041;-94
2022/08/25 10:10:17;;;;;;;2.45;1.88;;;;;;;32.42;42.51;99050.09;4970825;28;20070;-95
2022/08/25 10:13:18;;;;;;;12.02;4.78;;;;;;;32.50;40.00;99087.41;4974303;28;20087;-96
2022/08/25 10:15:45;;;;;;;10.63;2.85;;;;;;;32.55;41.95;99065.03;4985146;28;20523;-93
2022/08/25 10:18:27;;;;;;;3.83;2.30;;;;;;;31.99;42.01;99073.31;4971198;28;20117;-92
2022/08/25 10:21:13;;;;;;;5.13;2.58;;;;;;;32.53;41.53;99087.06;4971514;28;20038;-93
2022/08/25 10:23:51;;;;;;;3.65;1.90;;;;;;;31.70;41.55;99045.66;4971400;28;20066;-94
2022/08/25 10:27:00;;;;;;;3.47;2.75;;;;;;;31.86;42.75;99087.50;4988152;28;20121;-91
2022/08/25 10:29:40;;;;;;;7.80;2.72;;;;;;;31.91;39.34;99050.50;4999008;28;20054;-90
2022/08/25 10:32:18;;;;;;;1.67;1.27;;;;;;;32.05;40.00;99081.63;4987272;28;20045;-90
2022/08/25 10:34:52;;;;;;;6.63;2.67;;;;;;;31.90;39.37;99056.13;5007521;28;20026;-91
2022/08/25 10:37:53;;;;;;;5.37;1.93;;;;;;;31.57;40.90;99091.66;4989733;28;20629;-92
2022/08/25 10:40:26;;;;;;;5.57;1.75;;;;;;;31.30;41.85;99041.13;4970927;28;20042;-92
2022/08/25 10:43:05;;;;;;;6.80;4.53;;;;;;;31.55;41.77;99067.31;5007514;28;20036;-92
2022/08/25 10:45:44;;;;;;;2.30;1.65;;;;;;;31.28;41.85;99049.47;4990284;28;20029;-92
2022/08/25 10:48:19;;;;;;;4.20;1.90;;;;;;;31.61;41.13;99071.22;5007617;28;20522;-90
2022/08/25 10:51:09;;;;;;;8.02;3.45;;;;;;;31.77;44.38;99059.41;5007980;28;20033;-95
2022/08/25 10:53:56;;;;;;;5.30;2.90;;;;;;;31.98;41.52;99056.13;5007791;28;20033;-96
2022/08/25 10:56:28;;;;;;;5.97;2.08;;;;;;;31.85;39.77;99036.72;4990759;28;20519;-94
2022/08/25 10:59:06;;;;;;;6.13;2.35;;;;;;;31.97;42.84;99048.94;5004434;28;20050;-94
2022/08/25 11:01:53;;;;;;;11.25;2.28;;;;;;;32.10;42.17;99049.28;5007253;28;20045;-92
2022/08/25 11:04:25;;;;;;;16.20;4.15;;;;;;;32.16;42.44;99042.22;4990299;28;20784;-92
2022/08/25 11:06:59;;;;;;;8.52;3.75;;;;;;;32.37;41.24;99033.44;4989924;28;20625;-89
2022/08/25 11:09:32;;;;;;;;;;;;;;;32.24;39.66;99038.63;5007791;28;20037;-94
2022/08/25 11:12:07;;;;;;;5.70;2.47;;;;;;;32.35;41.63;99048.28;4989565;28;19913;-91
2022/08/25 11:14:39;;;;;;;6.05;2.70;;;;;;;32.34;40.91;99022.03;4989594;28;20109;-91
2022/08/25 11:17:17;;;;;;;8.88;2.03;;;;;;;32.63;41.59;99032.25;4989520;28;20037;-91
2022/08/25 11:19:50;;;;;;;3.15;2.63;;;;;;;32.54;41.21;99030.63;4989809;28;20038;-93
2022/08/25 11:22:36;;;;;;;2.80;2.42;;;;;;;32.69;38.36;99031.56;4989883;28;20500;-95
2022/08/25 11:25:17;;;;;;;9.07;2.08;;;;;;;32.62;39.20;99036.84;4990413;28;20121;-94
2022/08/25 11:28:29;;;;;;;2.97;1.83;;;;;;;32.38;37.21;99037.00;4990848;28;20049;-91
2022/08/25 11:31:02;;;;;;;7.68;4.70;;;;;;;32.58;41.33;99040.13;5006793;28;20069;-93
2022/08/25 11:33:29;;;;;;;3.40;2.58;;;;;;;32.61;37.73;99023.38;5006068;28;20038;-91
2022/08/25 11:36:02;;;;;;;12.07;1.85;;;;;;;32.79;34.56;99012.19;4989558;28;20046;-92
2022/08/25 11:39:09;;;;;;;11.40;4.05;;;;;;;32.79;35.75;99034.03;5007556;28;20033;-92
2022/08/25 11:41:40;;;;;;;6.43;1.42;;;;;;;32.96;33.99;99005.53;4987395;28;20520;-95
2022/08/25 11:44:37;;;;;;;4.05;1.52;;;;;;;33.28;36.27;99021.88;5008425;28;20443;-96
2022/08/25 11:47:35;;;;;;;32.20;3.83;;;;;;;32.46;36.24;99026.06;5007280;28;20088;-93
2022/08/25 11:50:25;;;;;;;7.93;2.40;;;;;;;32.64;35.67;99026.66;4990760;28;20030;-94
2022/08/25 11:53:11;;;;;;;9.70;2.00;;;;;;;32.76;34.93;98993.44;4991517;28;20034;-94
2022/08/25 11:55:36;;;;;;;2.20;1.23;;;;;;;32.89;35.61;99017.38;4988296;28;20041;-91
2022/08/25 11:58:29;;;;;;;2.08;1.88;;;;;;;33.16;34.66;99015.97;5008499;28;20424;-95
2022/08/25 12:00:57;;;;;;;11.05;1.95;;;;;;;33.52;35.83;99012.53;4991213;28;20030;-96